createdAt,value
2019-01-08T00:00:09.923Z,-460.04
2019-01-08T00:01:10.068Z,-458.48
2019-01-08T00:02:10.179Z,-457.91
2019-01-08T00:03:10.310Z,-458.63
2019-01-08T00:04:10.460Z,-457.92
2019-01-08T00:05:10.586Z,-456.20
2019-01-08T00:06:10.706Z,-459.43
2019-01-08T00:07:10.917Z,-458.15
2019-01-08T00:08:10.967Z,-458.36
2019-01-08T00:09:11.115Z,-461.05
2019-01-08T00:10:11.220Z,-456.91
2019-01-08T00:11:11.343Z,-458.07
2019-01-08T00:12:11.504Z,-459.43
2019-01-08T00:13:11.643Z,-457.93
2019-01-08T00:14:11.786Z,-458.37
2019-01-08T00:15:11.982Z,-458.86
2019-01-08T00:16:12.021Z,-460.20
2019-01-08T00:17:12.185Z,-460.30
2019-01-08T00:18:12.324Z,-457.85
2019-01-08T00:19:12.468Z,-459.18
2019-01-08T00:20:12.581Z,-459.59
2019-01-08T00:21:12.698Z,-458.61
2019-01-08T00:22:12.836Z,-460.30
2019-01-08T00:23:13.053Z,-457.05
2019-01-08T00:24:13.085Z,-459.82
2019-01-08T00:25:13.223Z,-433.75
2019-01-08T00:26:13.337Z,-432.43
2019-01-08T00:27:13.497Z,-435.09
2019-01-08T00:28:13.650Z,-433.76
2019-01-08T00:29:13.774Z,-433.14
2019-01-08T00:30:13.950Z,-433.75
2019-01-08T00:31:14.068Z,-432.40
2019-01-08T00:32:14.130Z,-435.37
2019-01-08T00:33:14.270Z,-435.31
2019-01-08T00:34:14.431Z,-434.76
2019-01-08T00:35:14.557Z,-432.60
2019-01-08T00:36:14.684Z,-433.63
2019-01-08T00:37:14.821Z,-433.45
2019-01-08T00:38:14.937Z,-433.62
2019-01-08T00:39:15.108Z,-432.72
2019-01-08T00:40:15.248Z,-432.80
2019-01-08T00:41:15.361Z,-434.10
2019-01-08T00:42:15.494Z,-433.73
2019-01-08T00:43:15.605Z,-432.81
2019-01-08T00:44:15.734Z,-433.82
2019-01-08T00:45:15.859Z,-432.29
2019-01-08T00:46:16.005Z,-432.61
2019-01-08T00:47:16.155Z,-435.51
2019-01-08T00:48:16.326Z,-437.40
2019-01-08T00:49:16.411Z,-433.81
2019-01-08T00:50:16.530Z,-433.97
2019-01-08T00:51:16.660Z,-434.55
2019-01-08T00:52:16.811Z,-434.55
2019-01-08T00:53:16.920Z,-435.67
2019-01-08T00:54:21.544Z,-432.56
2019-01-08T00:55:17.169Z,-434.46
2019-01-08T00:56:17.427Z,-433.86
2019-01-08T00:57:17.474Z,-432.53
2019-01-08T00:58:17.583Z,-434.53
2019-01-08T00:59:17.754Z,-432.55
2019-01-08T01:00:17.832Z,-433.16
2019-01-08T01:01:17.999Z,-433.59
2019-01-08T01:02:18.130Z,-433.24
2019-01-08T01:03:18.237Z,-434.86
2019-01-08T01:04:18.456Z,-432.96
2019-01-08T01:05:18.471Z,-434.51
2019-01-08T01:06:18.623Z,-434.43
2019-01-08T01:07:18.768Z,-436.87
2019-01-08T01:08:18.897Z,-434.79
2019-01-08T01:09:19.030Z,-433.99
2019-01-08T01:10:19.143Z,-435.07
2019-01-08T01:11:19.295Z,-434.13
2019-01-08T01:12:19.447Z,-432.76
2019-01-08T01:13:19.567Z,-432.13
2019-01-08T01:14:19.669Z,-434.60
2019-01-08T01:15:19.786Z,-433.85
2019-01-08T01:16:19.927Z,-436.39
2019-01-08T01:17:20.066Z,-435.91
2019-01-08T01:18:20.159Z,-434.19
2019-01-08T01:19:20.327Z,-434.53
2019-01-08T01:20:20.485Z,-433.17
2019-01-08T01:21:20.644Z,-434.09
2019-01-08T01:22:20.719Z,-433.80
2019-01-08T01:23:20.817Z,-435.15
2019-01-08T01:24:20.967Z,-434.25
2019-01-08T01:25:21.094Z,-433.26
2019-01-08T01:26:21.244Z,-436.61
2019-01-08T01:27:21.397Z,-434.13
2019-01-08T01:28:21.505Z,-435.04
2019-01-08T01:29:21.721Z,-434.57
2019-01-08T01:30:21.766Z,-433.77
2019-01-08T01:31:21.915Z,-434.67
2019-01-08T01:32:22.044Z,-434.92
2019-01-08T01:33:22.142Z,-434.32
2019-01-08T01:34:22.266Z,-433.00
2019-01-08T01:35:22.430Z,-434.12
2019-01-08T01:36:22.565Z,-435.53
2019-01-08T01:37:22.846Z,-434.19
2019-01-08T01:38:22.785Z,-434.46
2019-01-08T01:39:22.909Z,-433.67
2019-01-08T01:40:23.080Z,-433.99
2019-01-08T01:41:23.196Z,-434.88
2019-01-08T01:42:23.339Z,-435.40
2019-01-08T01:43:23.458Z,-435.30
2019-01-08T01:44:23.585Z,-434.74
2019-01-08T01:45:23.755Z,-433.33
2019-01-08T01:46:23.844Z,-434.88
2019-01-08T01:47:23.975Z,-435.00
2019-01-08T01:48:24.099Z,-434.65
2019-01-08T01:49:24.225Z,-435.13
2019-01-08T01:50:24.357Z,-435.21
2019-01-08T01:51:24.488Z,-436.24
2019-01-08T01:52:24.634Z,-433.52
2019-01-08T01:53:24.800Z,-434.85
2019-01-08T01:54:24.854Z,-434.43
2019-01-08T01:55:25.012Z,-434.31
2019-01-08T01:56:25.154Z,-435.15
2019-01-08T01:57:25.277Z,-433.39
2019-01-08T01:58:25.409Z,-433.15
2019-01-08T01:59:25.537Z,-434.55
2019-01-08T02:00:25.690Z,-431.09
2019-01-08T02:01:25.841Z,-434.64
2019-01-08T02:02:26.009Z,-432.96
2019-01-08T02:03:26.059Z,-433.70
2019-01-08T02:04:26.187Z,-435.98
2019-01-08T02:05:26.337Z,-432.86
2019-01-08T02:06:26.449Z,-432.31
2019-01-08T02:07:26.600Z,-435.49
2019-01-08T02:08:26.695Z,-435.60
2019-01-08T02:09:26.844Z,-431.73
2019-01-08T02:10:27.133Z,-433.66
2019-01-08T02:11:27.097Z,-435.04
2019-01-08T02:12:27.232Z,-434.68
2019-01-08T02:13:27.353Z,-434.37
2019-01-08T02:14:27.523Z,-432.27
2019-01-08T02:15:27.654Z,-432.07
2019-01-08T02:16:27.791Z,-431.94
2019-01-08T02:17:27.928Z,-434.15
2019-01-08T02:18:28.082Z,-431.87
2019-01-08T02:19:28.153Z,-432.18
2019-01-08T02:20:28.295Z,-433.89
2019-01-08T02:21:28.412Z,-435.41
2019-01-08T02:22:28.566Z,-435.10
2019-01-08T02:23:28.657Z,-432.01
2019-01-08T02:24:28.786Z,-431.52
2019-01-08T02:25:28.944Z,-433.82
2019-01-08T02:26:29.554Z,-432.85
2019-01-08T02:27:29.174Z,-433.25
2019-01-08T02:28:29.312Z,-433.16
2019-01-08T02:29:29.426Z,-433.40
2019-01-08T02:30:29.597Z,-432.40
2019-01-08T02:31:29.715Z,-433.84
2019-01-08T02:32:29.846Z,-432.10
2019-01-08T02:33:30.232Z,-432.76
2019-01-08T02:34:30.420Z,-434.85
2019-01-08T02:35:30.514Z,-432.56
2019-01-08T02:36:30.666Z,-433.60
2019-01-08T02:37:30.758Z,-431.36
2019-01-08T02:38:30.908Z,-432.89
2019-01-08T02:39:31.042Z,-431.43
2019-01-08T02:40:31.187Z,-430.74
2019-01-08T02:41:31.370Z,-429.89
2019-01-08T02:42:31.439Z,-430.48
2019-01-08T02:43:31.731Z,-432.22
2019-01-08T02:44:31.733Z,-432.68
2019-01-08T02:45:31.871Z,-434.40
2019-01-08T02:46:31.986Z,-433.82
2019-01-08T02:47:32.094Z,-430.70
2019-01-08T02:48:32.242Z,-433.09
2019-01-08T02:49:32.353Z,-433.61
2019-01-08T02:50:33.058Z,-434.74
2019-01-08T02:51:32.722Z,-434.25
2019-01-08T02:52:32.753Z,-433.72
2019-01-08T02:53:32.904Z,-432.80
2019-01-08T02:54:33.034Z,-433.79
2019-01-08T02:55:33.172Z,-435.09
2019-01-08T02:56:33.275Z,-431.02
2019-01-08T02:57:33.403Z,-434.51
2019-01-08T02:58:33.555Z,-435.95
2019-01-08T02:59:33.735Z,-433.86
2019-01-08T03:00:33.800Z,-433.66
2019-01-08T03:01:33.929Z,-435.22
2019-01-08T03:02:34.053Z,-432.93
2019-01-08T03:03:34.175Z,-433.91
2019-01-08T03:04:34.311Z,-435.65
2019-01-08T03:05:34.475Z,-433.54
2019-01-08T03:06:34.576Z,-432.51
2019-01-08T03:07:34.754Z,-434.88
2019-01-08T03:08:34.814Z,-434.83
2019-01-08T03:09:34.937Z,-432.33
2019-01-08T03:10:35.127Z,-435.79
2019-01-08T03:11:35.226Z,-433.26
2019-01-08T03:12:35.363Z,-434.34
2019-01-08T03:13:35.512Z,-433.48
2019-01-08T03:14:35.609Z,-432.18
2019-01-08T03:15:35.825Z,-434.03
2019-01-08T03:16:35.984Z,-433.43
2019-01-08T03:17:36.033Z,-433.68
2019-01-08T03:18:36.180Z,-433.70
2019-01-08T03:19:36.275Z,-432.98
2019-01-08T03:20:36.442Z,-434.13
2019-01-08T03:21:36.553Z,-435.09
2019-01-08T03:22:36.718Z,-434.91
2019-01-08T03:23:36.850Z,-433.46
2019-01-08T03:24:37.040Z,-432.92
2019-01-08T03:25:37.098Z,-434.08
2019-01-08T03:26:37.212Z,-433.32
2019-01-08T03:27:37.369Z,-433.62
2019-01-08T03:28:37.484Z,-433.39
2019-01-08T03:29:37.598Z,-434.17
2019-01-08T03:30:37.720Z,-435.28
2019-01-08T03:31:37.858Z,-433.83
2019-01-08T03:32:38.130Z,-433.17
2019-01-08T03:33:38.131Z,-433.54
2019-01-08T03:34:38.251Z,-433.43
2019-01-08T03:35:38.384Z,-433.59
2019-01-08T03:36:38.527Z,-433.80
2019-01-08T03:37:38.674Z,-433.42
2019-01-08T03:38:38.827Z,-431.29
2019-01-08T03:39:38.943Z,-433.93
2019-01-08T03:40:39.113Z,-433.40
2019-01-08T03:41:39.175Z,-434.75
2019-01-08T03:42:39.334Z,-433.47
2019-01-08T03:43:39.485Z,-431.89
2019-01-08T03:44:39.597Z,-429.55
2019-01-08T03:45:39.745Z,-431.56
2019-01-08T03:46:39.878Z,-434.57
2019-01-08T03:47:39.970Z,-431.35
2019-01-08T03:48:40.177Z,-433.03
2019-01-08T03:49:40.255Z,-433.14
2019-01-08T03:50:40.473Z,-435.31
2019-01-08T03:51:40.553Z,-431.92
2019-01-08T03:52:40.661Z,-432.69
2019-01-08T03:53:40.793Z,-431.06
2019-01-08T03:54:40.922Z,-431.82
2019-01-08T03:55:41.086Z,-432.12
2019-01-08T03:56:41.257Z,-432.57
2019-01-08T03:57:41.413Z,-435.13
2019-01-08T03:58:41.458Z,-435.16
2019-01-08T03:59:42.045Z,-431.33
2019-01-08T04:00:41.734Z,-432.20
2019-01-08T04:01:41.884Z,-434.36
2019-01-08T04:02:41.977Z,-432.55
2019-01-08T04:03:42.126Z,-431.18
2019-01-08T04:04:42.228Z,-432.96
2019-01-08T04:05:42.484Z,-435.07
2019-01-08T04:06:42.541Z,-432.83
2019-01-08T04:07:42.654Z,-433.37
2019-01-08T04:08:42.797Z,-434.98
2019-01-08T04:09:42.900Z,-432.93
2019-01-08T04:10:43.044Z,-435.06
2019-01-08T04:11:43.430Z,-433.38
2019-01-08T04:12:43.306Z,-431.64
2019-01-08T04:13:43.532Z,-436.12
2019-01-08T04:14:43.536Z,-430.44
2019-01-08T04:15:43.690Z,-435.18
2019-01-08T04:16:43.861Z,-432.59
2019-01-08T04:17:43.961Z,-432.38
2019-01-08T04:18:44.109Z,-433.69
2019-01-08T04:19:44.234Z,-434.06
2019-01-08T04:20:44.352Z,-434.64
2019-01-08T04:21:44.569Z,-434.86
2019-01-08T04:22:44.594Z,-433.23
2019-01-08T04:23:44.749Z,-434.36
2019-01-08T04:24:44.890Z,-430.65
2019-01-08T04:25:44.988Z,-431.85
2019-01-08T04:26:45.152Z,-433.30
2019-01-08T04:27:45.238Z,-431.56
2019-01-08T04:28:45.408Z,-430.40
2019-01-08T04:29:50.402Z,-432.72
2019-01-08T04:30:46.678Z,-431.32
2019-01-08T04:31:45.818Z,-432.48
2019-01-08T04:32:45.894Z,-430.64
2019-01-08T04:33:46.068Z,-429.94
2019-01-08T04:34:46.169Z,-429.71
2019-01-08T04:35:46.299Z,-431.81
2019-01-08T04:36:46.454Z,-429.30
2019-01-08T04:37:46.606Z,-427.65
2019-01-08T04:38:46.792Z,-429.35
2019-01-08T04:39:46.842Z,-428.02
2019-01-08T04:40:46.950Z,-429.21
2019-01-08T04:41:47.110Z,-431.37
2019-01-08T04:42:47.211Z,-430.27
2019-01-08T04:43:47.327Z,-431.03
2019-01-08T04:44:47.497Z,-429.98
2019-01-08T04:45:47.617Z,-430.95
2019-01-08T04:46:47.911Z,-427.92
2019-01-08T04:47:47.858Z,-428.40
2019-01-08T04:48:47.989Z,-429.95
2019-01-08T04:49:48.177Z,-433.80
2019-01-08T04:50:48.264Z,-430.01
2019-01-08T04:51:48.410Z,-431.35
2019-01-08T04:52:48.525Z,-431.93
2019-01-08T04:53:48.657Z,-429.58
2019-01-08T04:54:48.857Z,-431.00
2019-01-08T04:55:48.898Z,-430.56
2019-01-08T04:56:49.069Z,-430.30
2019-01-08T04:57:49.165Z,-429.90
2019-01-08T04:58:49.297Z,-432.47
2019-01-08T04:59:49.442Z,-430.02
2019-01-08T05:00:49.542Z,-429.87
2019-01-08T05:01:49.715Z,-431.73
2019-01-08T05:02:49.900Z,-429.78
2019-01-08T05:03:49.924Z,-431.92
2019-01-08T05:04:50.086Z,-430.96
2019-01-08T05:05:50.194Z,-432.22
2019-01-08T05:06:50.336Z,-433.10
2019-01-08T05:07:50.463Z,-434.63
2019-01-08T05:08:50.597Z,-432.41
2019-01-08T05:09:50.735Z,-431.43
2019-01-08T05:10:50.892Z,-429.95
2019-01-08T05:11:51.058Z,-433.50
2019-01-08T05:12:51.113Z,-428.19
2019-01-08T05:13:51.243Z,-429.94
2019-01-08T05:14:51.393Z,-430.49
2019-01-08T05:15:51.503Z,-430.46
2019-01-08T05:16:51.673Z,-429.87
2019-01-08T05:17:51.754Z,-429.10
2019-01-08T05:18:51.904Z,-429.45
2019-01-08T05:19:52.148Z,-428.88
2019-01-08T05:20:52.154Z,-429.81
2019-01-08T05:21:52.306Z,-432.86
2019-01-08T05:22:52.411Z,-427.05
2019-01-08T05:23:52.556Z,-427.15
2019-01-08T05:24:52.712Z,-425.95
2019-01-08T05:25:52.833Z,-426.52
2019-01-08T05:26:52.993Z,-426.00
2019-01-08T05:27:53.195Z,-428.03
2019-01-08T05:28:53.208Z,-429.05
2019-01-08T05:29:53.357Z,-427.26
2019-01-08T05:30:53.494Z,-427.45
2019-01-08T05:31:53.639Z,-427.05
2019-01-08T05:32:53.725Z,-428.42
2019-01-08T05:33:53.859Z,-424.54
2019-01-08T05:34:54.012Z,-428.68
2019-01-08T05:35:54.177Z,-424.73
2019-01-08T05:36:54.270Z,-424.47
2019-01-08T05:37:54.372Z,-427.33
2019-01-08T05:38:54.504Z,-425.60
2019-01-08T05:39:54.637Z,-426.86
2019-01-08T05:40:54.768Z,-425.75
2019-01-08T05:41:54.913Z,-426.88
2019-01-08T05:42:55.022Z,-426.38
2019-01-08T05:43:55.219Z,-426.13
2019-01-08T05:44:55.286Z,-422.53
2019-01-08T05:45:55.419Z,-424.29
2019-01-08T05:46:55.597Z,-423.60
2019-01-08T05:47:55.716Z,-420.95
2019-01-08T05:48:56.091Z,-422.66
2019-01-08T05:49:55.992Z,-425.33
2019-01-08T05:50:56.108Z,-410.66
2019-01-08T05:51:56.263Z,-423.76
2019-01-08T05:52:56.515Z,-423.95
2019-01-08T05:53:56.516Z,-425.29
2019-01-08T05:54:56.665Z,-427.51
2019-01-08T05:55:56.850Z,-421.19
2019-01-08T05:56:56.909Z,-423.02
2019-01-08T05:57:57.072Z,-427.33
2019-01-08T05:58:57.178Z,-427.55
2019-01-08T05:59:57.329Z,-427.83
2019-01-08T06:00:57.587Z,-426.88
2019-01-08T06:01:57.573Z,-425.30
2019-01-08T06:02:57.721Z,-424.52
2019-01-08T06:03:57.844Z,-429.13
2019-01-08T06:04:57.977Z,-427.60
2019-01-08T06:05:58.128Z,-427.81
2019-01-08T06:06:58.217Z,-426.64
2019-01-08T06:07:58.378Z,-423.95
2019-01-08T06:08:58.561Z,-426.52
2019-01-08T06:09:58.629Z,-426.02
2019-01-08T06:10:58.766Z,-424.43
2019-01-08T06:11:58.859Z,-424.23
2019-01-08T06:12:59.017Z,-426.07
2019-01-08T06:13:59.137Z,-426.11
2019-01-08T06:14:59.282Z,-426.26
2019-01-08T06:15:59.396Z,-428.09
2019-01-08T06:16:59.566Z,-430.14
2019-01-08T06:17:59.642Z,-428.12
2019-01-08T06:18:59.779Z,-427.13
2019-01-08T06:19:59.934Z,-430.02
2019-01-08T06:21:00.048Z,-425.87
2019-01-08T06:22:00.204Z,-426.37
2019-01-08T06:23:00.335Z,-431.18
2019-01-08T06:24:00.435Z,-424.02
2019-01-08T06:25:00.928Z,-423.32
2019-01-08T06:26:00.755Z,-428.37
2019-01-08T06:27:00.853Z,-427.65
2019-01-08T06:28:01.009Z,-426.66
2019-01-08T06:29:01.106Z,-428.60
2019-01-08T06:30:01.244Z,-428.04
2019-01-08T06:31:01.370Z,-427.90
2019-01-08T06:32:01.509Z,-426.16
2019-01-08T06:33:01.665Z,-428.36
2019-01-08T06:34:01.910Z,-425.32
2019-01-08T06:35:01.900Z,-421.00
2019-01-08T06:36:02.022Z,-425.93
2019-01-08T06:37:02.165Z,-427.88
2019-01-08T06:38:02.319Z,-423.37
2019-01-08T06:39:02.410Z,-421.43
2019-01-08T06:40:02.555Z,-424.80
2019-01-08T06:41:02.658Z,-424.05
2019-01-08T06:42:02.945Z,-423.32
2019-01-08T06:43:02.949Z,-424.15
2019-01-08T06:44:03.586Z,-422.80
2019-01-08T06:45:03.179Z,-425.98
2019-01-08T06:46:03.382Z,-422.51
2019-01-08T06:47:03.466Z,-424.24
2019-01-08T06:48:03.599Z,-422.10
2019-01-08T06:49:03.714Z,-424.63
2019-01-08T06:50:03.884Z,-426.63
2019-01-08T06:51:03.945Z,-421.54
2019-01-08T06:52:04.114Z,-425.09
2019-01-08T06:53:04.277Z,-420.21
2019-01-08T06:54:08.924Z,-426.52
2019-01-08T06:55:04.519Z,-421.93
2019-01-08T06:56:04.637Z,-421.74
2019-01-08T06:57:04.764Z,-420.04
2019-01-08T06:58:05.005Z,-418.68
2019-01-08T06:59:05.019Z,-419.79
2019-01-08T07:00:05.142Z,-421.60
2019-01-08T07:01:05.272Z,-423.89
2019-01-08T07:02:05.407Z,-426.79
2019-01-08T07:03:05.578Z,-425.37
2019-01-08T07:04:05.662Z,-424.00
2019-01-08T07:05:05.800Z,-425.07
2019-01-08T07:06:05.983Z,-427.46
2019-01-08T07:07:06.176Z,-424.06
2019-01-08T07:08:06.259Z,-423.53
2019-01-08T07:09:06.337Z,-425.59
2019-01-08T07:10:06.479Z,-426.58
2019-01-08T07:11:06.629Z,-429.27
2019-01-08T07:12:06.742Z,-426.66
2019-01-08T07:13:06.893Z,-428.43
2019-01-08T07:14:07.013Z,-428.52
2019-01-08T07:15:07.242Z,-420.45
2019-01-08T07:16:07.286Z,-419.68
2019-01-08T07:17:07.415Z,-426.27
2019-01-08T07:18:07.567Z,-424.12
2019-01-08T07:19:07.632Z,-425.43
2019-01-08T07:20:07.771Z,-427.06
2019-01-08T07:21:07.936Z,-429.69
2019-01-08T07:22:08.143Z,-429.00
2019-01-08T07:23:08.318Z,-430.76
2019-01-08T07:24:08.291Z,-430.43
2019-01-08T07:25:08.441Z,-428.91
2019-01-08T07:26:08.823Z,-426.58
2019-01-08T07:27:16.141Z,-425.90
2019-01-08T07:28:10.748Z,-424.85
2019-01-08T07:29:08.964Z,-425.86
2019-01-08T07:30:09.094Z,-424.66
2019-01-08T07:31:09.264Z,-426.16
2019-01-08T07:32:09.339Z,-428.20
2019-01-08T07:33:09.495Z,-428.44
2019-01-08T07:34:09.632Z,-427.47
2019-01-08T07:35:09.740Z,-430.61
2019-01-08T07:36:09.888Z,-430.95
2019-01-08T07:37:09.987Z,-428.16
2019-01-08T07:38:10.143Z,-424.74
2019-01-08T07:39:10.337Z,-416.90
2019-01-08T07:40:10.398Z,-416.65
2019-01-08T07:41:10.572Z,-429.65
2019-01-08T07:42:10.673Z,-428.58
2019-01-08T07:43:10.804Z,-422.10
2019-01-08T07:44:10.952Z,-425.75
2019-01-08T07:45:11.070Z,-426.67
2019-01-08T07:46:11.216Z,-428.75
2019-01-08T07:47:11.566Z,-428.60
2019-01-08T07:48:11.525Z,-428.32
2019-01-08T07:49:11.583Z,-430.54
2019-01-08T07:50:11.703Z,-424.71
2019-01-08T07:51:11.852Z,-430.09
2019-01-08T07:52:11.969Z,-427.25
2019-01-08T07:53:12.114Z,-426.65
2019-01-08T07:54:12.218Z,-426.84
2019-01-08T07:55:12.362Z,-426.05
2019-01-08T07:56:12.586Z,-428.23
2019-01-08T07:57:12.605Z,-412.98
2019-01-08T07:58:12.747Z,-428.47
2019-01-08T07:59:12.856Z,-429.13
2019-01-08T08:00:13.006Z,-427.11
2019-01-08T08:01:13.145Z,-427.18
2019-01-08T08:02:13.269Z,-425.95
2019-01-08T08:03:13.426Z,-425.95
2019-01-08T08:04:13.594Z,-429.60
2019-01-08T08:05:13.642Z,-428.04
2019-01-08T08:06:13.780Z,-426.76
2019-01-08T08:07:13.911Z,-428.75
2019-01-08T08:08:14.075Z,-427.18
2019-01-08T08:09:14.185Z,-424.78
2019-01-08T08:10:14.282Z,-426.91
2019-01-08T08:11:14.444Z,-427.50
2019-01-08T08:12:14.611Z,-427.64
2019-01-08T08:13:14.672Z,-425.69
2019-01-08T08:14:14.817Z,-426.09
2019-01-08T08:15:14.937Z,-420.97
2019-01-08T08:16:15.064Z,-424.33
2019-01-08T08:17:15.193Z,-426.27
2019-01-08T08:18:15.340Z,-425.40
2019-01-08T08:19:15.484Z,-428.03
2019-01-08T08:20:15.645Z,-427.25
2019-01-08T08:21:15.761Z,-429.54
2019-01-08T08:22:15.863Z,-430.61
2019-01-08T08:23:16.017Z,-428.30
2019-01-08T08:24:16.166Z,-427.13
2019-01-08T08:25:16.277Z,-428.37
2019-01-08T08:26:16.427Z,-426.38
2019-01-08T08:27:16.522Z,-428.23
2019-01-08T08:28:16.677Z,-425.13
2019-01-08T08:29:16.950Z,-424.85
2019-01-08T08:30:16.944Z,-424.42
2019-01-08T08:31:17.090Z,-426.00
2019-01-08T08:32:17.189Z,-425.60
2019-01-08T08:33:17.335Z,-424.95
2019-01-08T08:34:17.504Z,-426.63
2019-01-08T08:35:17.593Z,-423.77
2019-01-08T08:36:17.737Z,-422.04
2019-01-08T08:37:17.987Z,-427.41
2019-01-08T08:38:17.989Z,-419.72
2019-01-08T08:39:18.158Z,-427.13
2019-01-08T08:40:18.253Z,-429.62
2019-01-08T08:41:18.397Z,-415.01
2019-01-08T08:42:18.510Z,-429.33
2019-01-08T08:43:18.627Z,-427.51
2019-01-08T08:44:18.803Z,-424.03
2019-01-08T08:45:18.939Z,-422.79
2019-01-08T08:46:18.954Z,-428.21
2019-01-08T08:47:19.080Z,-428.00
2019-01-08T08:48:19.198Z,-430.06
2019-01-08T08:49:19.383Z,-429.06
2019-01-08T08:50:19.449Z,-429.07
2019-01-08T08:51:19.638Z,-428.31
2019-01-08T08:52:19.701Z,-427.42
2019-01-08T08:53:20.112Z,-430.40
2019-01-08T08:54:20.048Z,-429.17
2019-01-08T08:55:20.147Z,-429.24
2019-01-08T08:56:20.301Z,-412.13
2019-01-08T08:57:20.407Z,-424.32
2019-01-08T08:58:20.544Z,-426.24
2019-01-08T08:59:20.688Z,-429.44
2019-01-08T09:00:20.827Z,-429.96
2019-01-08T09:01:20.990Z,-430.75
2019-01-08T09:02:21.139Z,-430.13
2019-01-08T09:03:21.198Z,-430.49
2019-01-08T09:04:21.330Z,-429.10
2019-01-08T09:05:21.467Z,-427.04
2019-01-08T09:06:21.831Z,-427.68
2019-01-08T09:07:21.723Z,-427.78
2019-01-08T09:08:21.865Z,-425.35
2019-01-08T09:09:22.008Z,-427.93
2019-01-08T09:10:22.204Z,-427.76
2019-01-08T09:11:22.266Z,-426.85
2019-01-08T09:12:22.380Z,-431.42
2019-01-08T09:13:22.542Z,-432.49
2019-01-08T09:14:22.656Z,-431.91
2019-01-08T09:15:22.758Z,-423.93
2019-01-08T09:16:22.908Z,-426.77
2019-01-08T09:17:23.029Z,-433.70
2019-01-08T09:18:23.423Z,-429.88
2019-01-08T09:19:23.304Z,-431.43
2019-01-08T09:20:23.405Z,-430.86
2019-01-08T09:21:23.550Z,-430.63
2019-01-08T09:22:23.695Z,-431.54
2019-01-08T09:23:23.858Z,-431.33
2019-01-08T09:24:23.993Z,-430.23
2019-01-08T09:25:24.120Z,-431.55
2019-01-08T09:26:24.252Z,-431.18
2019-01-08T09:27:24.365Z,-429.57
2019-01-08T09:28:24.499Z,-425.20
2019-01-08T09:29:24.647Z,-427.35
2019-01-08T09:30:24.781Z,-429.26
2019-01-08T09:31:24.891Z,-428.23
2019-01-08T09:32:25.017Z,-427.73
2019-01-08T09:33:25.141Z,-428.65
2019-01-08T09:34:25.343Z,-428.51
2019-01-08T09:35:25.455Z,-426.85
2019-01-08T09:36:25.556Z,-428.38
2019-01-08T09:37:25.702Z,-426.30
2019-01-08T09:38:25.790Z,-421.29
2019-01-08T09:39:25.963Z,-426.19
2019-01-08T09:40:26.087Z,-429.34
2019-01-08T09:41:26.201Z,-429.27
2019-01-08T09:42:26.380Z,-427.36
2019-01-08T09:43:26.546Z,-426.87
2019-01-08T09:44:26.609Z,-428.93
2019-01-08T09:45:26.739Z,-426.70
2019-01-08T09:46:26.852Z,-426.06
2019-01-08T09:47:27.001Z,-427.83
2019-01-08T09:48:27.111Z,-426.80
2019-01-08T09:49:27.248Z,-426.92
2019-01-08T09:50:27.390Z,-427.27
2019-01-08T09:51:27.642Z,-425.98
2019-01-08T09:52:27.648Z,-426.16
2019-01-08T09:53:27.752Z,-425.51
2019-01-08T09:54:27.902Z,-429.13
2019-01-08T09:55:28.038Z,-423.95
2019-01-08T09:56:28.163Z,-419.69
2019-01-08T09:57:28.307Z,-426.00
2019-01-08T09:58:28.422Z,-427.76
2019-01-08T09:59:28.609Z,-427.13
2019-01-08T10:00:28.663Z,-429.01
2019-01-08T10:01:28.795Z,-429.51
2019-01-08T10:02:28.948Z,-429.22
2019-01-08T10:03:29.052Z,-428.84
2019-01-08T10:04:29.226Z,-426.53
2019-01-08T10:05:29.326Z,-429.51
2019-01-08T10:06:29.451Z,-427.18
2019-01-08T10:07:29.646Z,-428.73
2019-01-08T10:08:29.716Z,-430.34
2019-01-08T10:09:29.861Z,-430.78
2019-01-08T10:10:29.980Z,-429.36
2019-01-08T10:11:30.086Z,-429.48
2019-01-08T10:12:30.253Z,-428.89
2019-01-08T10:13:30.372Z,-430.56
2019-01-08T10:14:30.535Z,-431.45
2019-01-08T10:15:30.705Z,-429.34
2019-01-08T10:16:30.782Z,-430.72
2019-01-08T10:17:30.907Z,-431.88
2019-01-08T10:18:31.022Z,-432.69
2019-01-08T10:19:31.170Z,-431.21
2019-01-08T10:20:31.291Z,-431.95
2019-01-08T10:21:31.424Z,-432.36
2019-01-08T10:22:31.544Z,-431.00
2019-01-08T10:23:31.668Z,-428.32
2019-01-08T10:24:31.926Z,-429.83
2019-01-08T10:25:31.931Z,-428.19
2019-01-08T10:26:32.063Z,-429.17
2019-01-08T10:27:32.194Z,-427.95
2019-01-08T10:28:32.322Z,-428.23
2019-01-08T10:29:32.481Z,-429.05
2019-01-08T10:30:32.613Z,-429.52
2019-01-08T10:31:32.914Z,-427.84
2019-01-08T10:32:32.986Z,-430.91
2019-01-08T10:33:32.994Z,-430.20
2019-01-08T10:34:33.132Z,-429.09
2019-01-08T10:35:33.278Z,-425.06
2019-01-08T10:36:33.398Z,-428.18
2019-01-08T10:37:33.538Z,-429.27
2019-01-08T10:38:33.623Z,-430.02
2019-01-08T10:39:33.790Z,-427.88
2019-01-08T10:40:33.968Z,-431.14
2019-01-08T10:41:34.024Z,-427.65
2019-01-08T10:42:34.178Z,-426.47
2019-01-08T10:43:34.290Z,-429.41
2019-01-08T10:44:34.416Z,-430.04
2019-01-08T10:45:34.796Z,-427.13
2019-01-08T10:46:37.601Z,-430.66
2019-01-08T10:47:34.829Z,-431.43
2019-01-08T10:48:34.996Z,-429.04
2019-01-08T10:49:35.067Z,-429.05
2019-01-08T10:50:35.203Z,-425.50
2019-01-08T10:51:35.337Z,-427.66
2019-01-08T10:52:35.475Z,-427.64
2019-01-08T10:53:35.590Z,-428.40
2019-01-08T10:54:35.713Z,-427.39
2019-01-08T10:55:35.884Z,-428.40
2019-01-08T10:56:35.997Z,-428.14
2019-01-08T10:57:36.198Z,-430.63
2019-01-08T10:58:36.239Z,-427.51
2019-01-08T10:59:36.368Z,-427.37
2019-01-08T11:00:36.524Z,-430.20
2019-01-08T11:01:40.441Z,-431.68
2019-01-08T11:02:36.776Z,-429.19
2019-01-08T11:03:36.904Z,-431.00
2019-01-08T11:04:37.036Z,-430.01
2019-01-08T11:05:37.404Z,-428.55
2019-01-08T11:06:37.297Z,-432.95
2019-01-08T11:07:37.437Z,-430.34
2019-01-08T11:08:37.549Z,-429.85
2019-01-08T11:09:37.686Z,-427.64
2019-01-08T11:10:37.843Z,-429.51
2019-01-08T11:11:37.958Z,-428.63
2019-01-08T11:12:38.095Z,-427.13
2019-01-08T11:13:38.270Z,-430.64
2019-01-08T11:14:38.346Z,-430.87
2019-01-08T11:15:38.505Z,-431.69
2019-01-08T11:16:38.593Z,-430.23
2019-01-08T11:17:38.741Z,-428.44
2019-01-08T11:18:38.857Z,-426.19
2019-01-08T11:19:39.006Z,-431.68
2019-01-08T11:20:39.164Z,-432.15
2019-01-08T11:21:39.314Z,-428.58
2019-01-08T11:22:39.391Z,-429.33
2019-01-08T11:23:39.495Z,-428.54
2019-01-08T11:24:39.644Z,-431.15
2019-01-08T11:25:39.821Z,-429.00
2019-01-08T11:26:39.928Z,-427.74
2019-01-08T11:27:40.041Z,-432.01
2019-01-08T11:28:40.177Z,-432.25
2019-01-08T11:29:40.348Z,-430.64
2019-01-08T11:30:40.517Z,-428.75
2019-01-08T11:31:48.602Z,-428.26
2019-01-08T11:32:41.699Z,-426.48
2019-01-08T11:33:40.858Z,-431.89
2019-01-08T11:34:40.985Z,-429.34
2019-01-08T11:35:42.313Z,-428.16
2019-01-08T11:36:41.245Z,-429.41
2019-01-08T11:37:41.403Z,-432.32
2019-01-08T11:38:41.652Z,-430.42
2019-01-08T11:39:41.652Z,-431.26
2019-01-08T11:40:41.816Z,-430.55
2019-01-08T11:41:41.945Z,-431.79
2019-01-08T11:42:42.058Z,-430.48
2019-01-08T11:43:42.213Z,-426.87
2019-01-08T11:44:42.319Z,-429.06
2019-01-08T11:45:42.463Z,-429.34
2019-01-08T11:46:42.680Z,-429.15
2019-01-08T11:47:42.710Z,-430.60
2019-01-08T11:48:42.861Z,-427.07
2019-01-08T11:49:42.975Z,-430.56
2019-01-08T11:50:43.123Z,-429.93
2019-01-08T11:51:43.231Z,-429.47
2019-01-08T11:52:43.385Z,-430.99
2019-01-08T11:53:43.515Z,-430.38
2019-01-08T11:54:43.671Z,-426.22
2019-01-08T11:55:43.766Z,-429.52
2019-01-08T11:56:43.888Z,-430.53
2019-01-08T11:57:44.001Z,-428.68
2019-01-08T11:58:44.181Z,-430.18
2019-01-08T11:59:44.286Z,-431.07
2019-01-08T12:00:44.432Z,-430.39
2019-01-08T12:01:44.566Z,-425.44
2019-01-08T12:02:47.894Z,-428.24
2019-01-08T12:03:44.793Z,-429.38
2019-01-08T12:04:44.915Z,-427.67
2019-01-08T12:05:45.062Z,-427.89
2019-01-08T12:06:45.211Z,-428.33